Time;durP1;ratioP1;P1;durP2;ratioP2;P2;SDS_P1;SDS_P2;PMS_P1;PMS_P2;Temp;Humidity;BMP_temperature;BMP_pressure;BME280_temperature;BME280_humidity;BME280_pressure;Samples;Min_cycle;Max_cycle;Signal;HPM_P1;HPM_P2
2021/05/18 00:00:47;;;;;;;17.10;5.67;;;13.00;99.90;;;;;;5051205;28;20193;-79
2021/05/18 00:03:17;;;;;;;25.23;5.83;;;13.00;99.90;;;;;;5050659;28;20192;-78
2021/05/18 00:05:47;;;;;;;22.40;6.13;;;13.10;99.90;;;;;;5049686;28;20608;-78
2021/05/18 00:08:14;;;;;;;25.00;6.23;;;13.10;99.90;;;;;;5051148;28;20204;-79
2021/05/18 00:13:36;;;;;;;25.70;6.20;;;13.20;99.90;;;;;;5052029;28;20534;-79
2021/05/18 00:16:03;;;;;;;19.17;5.60;;;13.20;99.90;;;;;;5048095;28;20183;-79
2021/05/18 00:18:29;;;;;;;22.20;5.40;;;13.10;99.90;;;;;;5053801;28;20220;-79
2021/05/18 00:20:55;;;;;;;22.40;6.00;;;13.10;99.90;;;;;;5049893;28;20185;-80
2021/05/18 00:23:21;;;;;;;20.00;5.40;;;13.20;99.90;;;;;;5049018;28;20182;-80
2021/05/18 00:25:47;;;;;;;24.57;6.17;;;13.20;99.90;;;;;;5051706;28;20174;-79
2021/05/18 00:28:13;;;;;;;22.83;6.80;;;13.20;99.90;;;;;;5048486;28;20201;-80
2021/05/18 00:30:40;;;;;;;27.07;5.87;;;13.30;99.90;;;;;;5051123;28;20209;-79
2021/05/18 00:33:15;;;;;;;26.87;6.13;;;13.20;99.90;;;;;;5053263;28;20181;-79
2021/05/18 00:35:42;;;;;;;24.87;6.67;;;13.20;99.90;;;;;;5032453;28;20220;-79
2021/05/18 00:38:09;;;;;;;28.43;6.90;;;13.20;99.90;;;;;;5047137;28;20183;-79
2021/05/18 00:40:35;;;;;;;25.50;6.67;;;13.10;99.90;;;;;;5046019;28;20183;-79
2021/05/18 00:43:01;;;;;;;24.97;6.10;;;13.10;99.90;;;;;;5051298;28;20186;-79
2021/05/18 00:45:42;;;;;;;29.57;6.77;;;13.00;99.90;;;;;;5039950;28;20192;-79
2021/05/18 00:48:09;;;;;;;26.93;6.07;;;13.10;99.90;;;;;;5050601;28;20293;-79
2021/05/18 00:50:39;;;;;;;31.03;6.57;;;13.10;99.90;;;;;;5034790;28;20754;-79
2021/05/18 00:53:05;;;;;;;20.10;5.90;;;13.10;99.90;;;;;;5034257;28;20620;-79
2021/05/18 00:55:52;;;;;;;23.87;6.30;;;13.10;99.90;;;;;;5032761;28;20164;-79
2021/05/18 00:58:33;;;;;;;26.07;6.60;;;13.20;99.90;;;;;;5046363;28;20299;-79
2021/05/18 01:01:11;;;;;;;21.23;5.90;;;13.20;99.90;;;;;;5049947;28;20187;-79
2021/05/18 01:03:38;;;;;;;25.13;6.70;;;13.20;99.90;;;;;;5046369;28;20281;-79
2021/05/18 01:08:56;;;;;;;25.23;6.50;;;13.20;99.90;;;;;;5049586;28;20210;-79
2021/05/18 01:11:25;;;;;;;22.43;5.77;;;13.20;99.90;;;;;;5046355;28;20216;-79
2021/05/18 01:13:57;;;;;;;23.90;5.67;;;13.10;99.90;;;;;;5045840;28;20212;-79
2021/05/18 01:16:25;;;;;;;21.07;5.90;;;13.20;99.90;;;;;;5034031;28;20256;-79
2021/05/18 01:18:51;;;;;;;21.23;5.10;;;13.20;99.90;;;;;;5052017;28;20187;-79
2021/05/18 01:21:17;;;;;;;20.07;5.50;;;13.30;99.90;;;;;;5073224;28;20209;-79
2021/05/18 01:23:44;;;;;;;23.97;5.77;;;13.30;99.90;;;;;;5044489;28;20225;-78
2021/05/18 01:26:11;;;;;;;23.40;6.87;;;13.30;99.90;;;;;;5077262;28;21017;-79
2021/05/18 01:28:37;;;;;;;23.20;6.10;;;13.30;99.90;;;;;;5075046;28;20207;-79
2021/05/18 01:31:05;;;;;;;22.97;6.07;;;13.30;99.90;;;;;;5075334;28;20208;-79
2021/05/18 01:33:32;;;;;;;24.90;6.17;;;13.30;99.90;;;;;;5071775;28;20295;-79
2021/05/18 01:36:00;;;;;;;25.10;6.50;;;13.40;99.90;;;;;;5064841;28;20224;-79
2021/05/18 01:38:35;;;;;;;19.63;5.77;;;13.40;99.90;;;;;;5074050;28;20186;-79
2021/05/18 01:43:50;;;;;;;26.57;6.33;;;13.40;99.90;;;;;;5075717;28;20210;-78
2021/05/18 01:46:19;;;;;;;18.77;6.17;;;13.30;99.90;;;;;;5073745;28;20188;-78
2021/05/18 01:48:48;;;;;;;20.50;5.87;;;13.20;99.90;;;;;;5056324;28;20206;-78
2021/05/18 01:51:15;;;;;;;23.17;6.13;;;13.20;99.90;;;;;;5074280;28;20207;-80
2021/05/18 01:53:41;;;;;;;20.40;6.50;;;13.30;99.90;;;;;;5057253;28;20177;-78
2021/05/18 01:58:35;;;;;;;24.70;6.10;;;13.40;99.90;;;;;;5091180;28;20232;-80
2021/05/18 02:01:13;;;;;;;23.43;6.17;;;13.40;99.90;;;;;;5055321;28;20230;-79
2021/05/18 02:03:38;;;;;;;25.57;6.03;;;13.30;99.90;;;;;;5055106;28;20181;-80
2021/05/18 02:06:06;;;;;;;23.83;7.27;;;13.30;99.90;;;;;;5068688;28;20188;-79
2021/05/18 02:08:31;;;;;;;29.77;6.43;;;13.30;99.90;;;;;;5095186;28;20828;-79
2021/05/18 02:11:00;;;;;;;28.33;7.57;;;13.30;99.90;;;;;;5086097;28;20201;-79
2021/05/18 02:13:27;;;;;;;22.17;6.67;;;13.20;99.90;;;;;;5095653;28;20168;-78
2021/05/18 02:16:09;;;;;;;22.73;6.10;;;13.20;99.90;;;;;;5077545;28;20185;-79
2021/05/18 02:26:52;;;;;;;31.37;6.83;;;13.20;99.90;;;;;;5095201;28;20548;-78
2021/05/18 02:29:18;;;;;;;23.00;6.80;;;13.30;99.90;;;;;;5076820;28;20176;-79
2021/05/18 02:31:45;;;;;;;33.10;7.27;;;13.20;99.90;;;;;;5077752;28;20193;-79
2021/05/18 02:34:32;;;;;;;27.13;6.43;;;13.20;99.90;;;;;;5074444;28;20176;-79
2021/05/18 02:37:00;;;;;;;26.07;6.93;;;13.10;99.90;;;;;;5096471;28;20268;-80
2021/05/18 02:39:26;;;;;;;24.27;6.40;;;13.20;99.90;;;;;;5076862;28;20177;-79
2021/05/18 02:41:52;;;;;;;26.30;6.30;;;13.20;99.90;;;;;;5071594;28;20188;-79
2021/05/18 02:49:39;;;;;;;26.80;6.23;;;13.30;99.90;;;;;;5078636;28;20570;-79
2021/05/18 02:52:05;;;;;;;33.23;6.87;;;13.30;99.90;;;;;;5058833;28;20283;-79
2021/05/18 02:54:33;;;;;;;31.93;7.70;;;13.30;99.90;;;;;;5075320;28;20169;-79
2021/05/18 02:57:06;;;;;;;27.43;7.73;;;13.40;99.90;;;;;;5061734;28;20260;-79
2021/05/18 02:59:31;;;;;;;29.63;7.80;;;13.40;99.90;;;;;;5078307;28;20196;-79
2021/05/18 03:02:00;;;;;;;30.30;10.30;;;13.30;99.90;;;;;;5076817;28;20180;-79
2021/05/18 03:04:28;;;;;;;26.77;11.27;;;13.30;99.90;;;;;;5073057;28;20185;-79
2021/05/18 03:06:54;;;;;;;26.57;10.53;;;13.20;99.90;;;;;;5058546;28;20199;-79
2021/05/18 03:09:21;;;;;;;29.33;10.10;;;13.20;99.90;;;;;;5095154;28;20275;-79
2021/05/18 03:11:50;;;;;;;28.07;10.33;;;13.20;99.90;;;;;;5098659;28;20189;-79
2021/05/18 03:14:16;;;;;;;24.43;8.03;;;13.30;99.90;;;;;;5074233;28;20642;-79
2021/05/18 03:16:43;;;;;;;27.70;7.00;;;13.30;99.90;;;;;;5081511;28;20180;-79
2021/05/18 03:19:10;;;;;;;24.13;7.23;;;13.30;99.90;;;;;;5060549;28;20538;-79
2021/05/18 03:21:37;;;;;;;22.67;7.30;;;13.30;99.90;;;;;;5082757;28;20744;-80
2021/05/18 03:24:05;;;;;;;26.03;8.10;;;13.20;99.90;;;;;;5075849;28;20193;-80
2021/05/18 03:26:31;;;;;;;29.37;7.27;;;13.20;99.90;;;;;;5072160;28;20653;-80
2021/05/18 03:29:10;;;;;;;25.77;7.47;;;13.30;99.90;;;;;;5090245;28;20265;-78
2021/05/18 03:39:48;;;;;;;26.50;7.77;;;13.40;99.90;;;;;;5089200;28;20275;-79
2021/05/18 03:42:18;;;;;;;32.67;7.03;;;13.30;99.90;;;;;;5075510;28;20197;-79
2021/05/18 04:03:49;;;;;;;22.97;7.23;;;13.10;99.90;;;;;;5086329;28;20188;-79
2021/05/18 04:17:12;;;;;;;27.07;7.30;;;13.10;99.90;;;;;;5093587;28;20180;-79
2021/05/18 04:19:42;;;;;;;30.87;7.43;;;13.20;99.90;;;;;;5072535;28;20181;-79
2021/05/18 04:24:51;;;;;;;31.33;7.53;;;13.20;99.90;;;;;;5093548;28;20262;-80
2021/05/18 04:38:46;;;;;;;31.10;8.60;;;13.40;99.90;;;;;;5068250;28;20644;-79
2021/05/18 04:52:16;;;;;;;25.53;7.23;;;13.40;99.90;;;;;;5073416;28;20239;-80
2021/05/18 05:00:08;;;;;;;22.97;7.20;;;13.60;99.90;;;;;;5072233;28;20647;-79
2021/05/18 05:08:21;;;;;;;24.47;8.60;;;13.70;99.90;;;;;;5091462;28;20191;-78
2021/05/18 05:15:36;;;;;;;27.70;8.47;;;13.60;99.90;;;;;;5089866;28;20185;-77
2021/05/18 05:18:02;;;;;;;21.67;7.57;;;13.60;99.90;;;;;;5074955;28;20220;-77
2021/05/18 05:20:29;;;;;;;25.30;7.43;;;13.50;99.90;;;;;;5090944;28;20206;-77
2021/05/18 05:22:55;;;;;;;21.10;7.60;;;13.40;99.90;;;;;;5094974;28;20195;-78
2021/05/18 05:25:21;;;;;;;23.23;7.07;;;13.50;99.90;;;;;;5073498;28;20242;-78
2021/05/18 05:27:47;;;;;;;19.20;6.70;;;13.60;99.90;;;;;;5089146;28;20185;-77
2021/05/18 05:30:13;;;;;;;18.27;6.37;;;13.80;99.90;;;;;;5072778;28;20740;-78
2021/05/18 05:32:38;;;;;;;19.67;6.63;;;14.00;99.90;;;;;;5057115;28;20270;-78
2021/05/18 05:35:05;;;;;;;16.90;6.20;;;14.20;99.90;;;;;;5090770;28;20601;-79
2021/05/18 05:37:31;;;;;;;23.53;6.60;;;15.10;99.90;;;;;;5076156;28;20185;-79
2021/05/18 05:39:57;;;;;;;22.10;5.93;;;16.50;99.90;;;;;;5090398;28;20260;-79
2021/05/18 05:42:23;;;;;;;22.27;5.47;;;17.30;99.90;;;;;;5075552;28;20180;-79
2021/05/18 05:44:49;;;;;;;19.00;4.97;;;18.30;99.90;;;;;;5056538;28;20282;-78
2021/05/18 05:47:16;;;;;;;18.97;4.90;;;19.90;99.90;;;;;;5088598;28;20261;-79
2021/05/18 05:49:42;;;;;;;18.23;4.90;;;19.50;99.90;;;;;;5068495;28;20725;-78
2021/05/18 05:52:10;;;;;;;16.13;4.40;;;18.90;99.90;;;;;;5076161;28;20225;-78
2021/05/18 05:54:35;;;;;;;21.47;4.50;;;18.30;99.90;;;;;;5095239;28;20252;-77
2021/05/18 05:57:01;;;;;;;21.77;5.03;;;17.50;99.90;;;;;;5096224;28;20660;-78
2021/05/18 05:59:27;;;;;;;15.63;4.93;;;17.10;99.90;;;;;;5094672;28;20224;-78
2021/05/18 06:01:52;;;;;;;17.53;4.97;;;16.80;99.90;;;;;;5080705;28;20203;-78
2021/05/18 06:04:18;;;;;;;20.13;5.43;;;16.50;99.90;;;;;;5094226;28;20312;-77
2021/05/18 06:06:44;;;;;;;21.07;5.63;;;16.30;99.90;;;;;;5074333;28;20200;-77
2021/05/18 06:09:10;;;;;;;23.20;5.97;;;16.00;99.90;;;;;;5058714;28;20623;-77
2021/05/18 06:11:55;;;;;;;23.07;6.03;;;15.80;99.90;;;;;;5093342;28;20199;-77
2021/05/18 06:14:34;;;;;;;17.63;6.50;;;15.70;99.90;;;;;;5095225;28;20203;-77
2021/05/18 06:43:36;;;;;;;23.87;7.10;;;14.70;99.90;;;;;;5070628;28;20189;-77
2021/05/18 06:48:36;;;;;;;19.57;6.50;;;14.80;99.90;;;;;;5086318;28;20204;-76
2021/05/18 06:51:02;;;;;;;22.47;6.87;;;14.70;99.90;;;;;;5074096;28;20694;-77
2021/05/18 06:53:28;;;;;;;22.57;6.20;;;14.80;99.90;;;;;;5095787;28;20698;-76
2021/05/18 06:55:56;;;;;;;20.27;5.73;;;14.90;99.90;;;;;;5095091;28;20178;-77
2021/05/18 07:01:05;;;;;;;18.97;5.30;;;14.90;99.90;;;;;;5086256;28;20209;-78
2021/05/18 07:03:36;;;;;;;20.83;5.93;;;15.00;99.90;;;;;;5093528;28;20183;-77
2021/05/18 07:10:54;;;;;;;18.27;5.50;;;16.20;99.90;;;;;;5089048;28;20285;-78
2021/05/18 07:13:20;;;;;;;16.93;5.73;;;16.70;99.90;;;;;;5076499;28;20183;-78
2021/05/18 07:15:46;;;;;;;17.40;5.70;;;16.80;99.90;;;;;;5096178;28;20282;-76
2021/05/18 07:18:12;;;;;;;20.57;6.53;;;16.70;99.90;;;;;;5091285;28;20321;-77
2021/05/18 07:20:38;;;;;;;17.80;6.63;;;16.30;99.90;;;;;;5074588;28;24004;-77
2021/05/18 07:23:13;;;;;;;16.77;6.47;;;15.90;99.90;;;;;;5093077;28;20576;-77
2021/05/18 07:25:39;;;;;;;17.53;7.17;;;15.60;99.90;;;;;;5096115;28;20191;-77
2021/05/18 07:28:07;;;;;;;17.77;6.90;;;15.40;99.90;;;;;;5073686;28;20241;-77
2021/05/18 07:30:35;;;;;;;20.53;7.47;;;15.20;99.90;;;;;;5088266;28;20242;-77
2021/05/18 07:33:01;;;;;;;19.17;7.60;;;14.90;99.90;;;;;;5096016;28;20181;-76
2021/05/18 07:35:26;;;;;;;15.57;7.80;;;14.40;99.90;;;;;;5097087;28;20222;-76
2021/05/18 07:37:52;;;;;;;15.10;6.67;;;14.30;99.90;;;;;;5061891;28;20182;-77
2021/05/18 07:40:18;;;;;;;16.53;7.10;;;15.50;99.90;;;;;;5074247;28;20205;-77
2021/05/18 07:42:44;;;;;;;16.77;7.40;;;15.00;99.90;;;;;;5091476;28;20175;-77
2021/05/18 07:45:10;;;;;;;16.30;7.60;;;15.00;99.90;;;;;;5077930;28;20202;-78
2021/05/18 07:47:37;;;;;;;16.07;6.90;;;16.10;99.90;;;;;;5084645;28;20167;-77
2021/05/18 07:50:11;;;;;;;15.60;6.20;;;18.40;99.90;;;;;;5093523;28;20236;-77
2021/05/18 08:05:48;;;;;;;12.87;7.27;;;17.20;99.90;;;;;;5068085;28;20679;-76
2021/05/18 08:08:14;;;;;;;11.83;6.20;;;17.30;99.90;;;;;;5073581;28;20187;-76
2021/05/18 08:10:58;;;;;;;14.50;5.97;;;17.90;99.90;;;;;;5061737;28;20229;-78
2021/05/18 08:13:24;;;;;;;12.67;5.53;;;18.90;99.90;;;;;;5074653;28;20223;-77
2021/05/18 10:14:37;;;;;;;7.10;2.20;;;25.20;94.30;;;;;;5064124;28;20214;-76
2021/05/18 10:35:55;;;;;;;3.97;2.00;;;25.40;85.40;;;;;;5093487;28;20666;-77
2021/05/18 10:38:24;;;;;;;3.60;1.87;;;26.30;85.00;;;;;;5060083;28;20235;-76
2021/05/18 10:40:52;;;;;;;3.23;1.47;;;26.80;82.60;;;;;;5093245;28;20277;-76
2021/05/18 10:43:27;;;;;;;4.20;1.80;;;27.50;81.00;;;;;;5086208;28;20558;-77
2021/05/18 10:45:59;;;;;;;7.22;1.77;;;27.60;81.40;;;;;;5093536;28;20191;-77
2021/05/18 10:48:53;;;;;;;6.22;1.95;;;26.10;76.20;;;;;;5095381;28;20598;-77
2021/05/18 10:51:35;;;;;;;4.37;1.80;;;26.50;77.80;;;;;;5077347;28;20214;-77
2021/05/18 10:54:23;;;;;;;6.43;1.90;;;25.20;77.80;;;;;;5094161;28;20262;-77
2021/05/18 10:56:59;;;;;;;4.57;1.90;;;23.90;81.60;;;;;;5095005;28;20210;-77
2021/05/18 10:59:44;;;;;;;8.60;1.70;;;22.60;88.30;;;;;;5095780;28;20193;-77
2021/05/18 11:02:30;;;;;;;3.90;1.63;;;24.00;85.80;;;;;;5073720;28;20836;-78
2021/05/18 11:04:58;;;;;;;3.07;1.60;;;25.40;79.80;;;;;;5077303;28;20193;-77
2021/05/18 11:07:36;;;;;;;4.10;1.70;;;24.40;80.00;;;;;;5088415;28;20265;-78
2021/05/18 11:10:06;;;;;;;4.20;1.80;;;23.40;82.30;;;;;;5094753;28;20562;-75
2021/05/18 11:12:32;;;;;;;4.63;2.00;;;22.70;81.60;;;;;;5074440;28;20210;-78
2021/05/18 11:14:58;;;;;;;3.77;2.00;;;22.20;86.00;;;;;;5076988;28;20266;-78
2021/05/18 11:17:41;;;;;;;4.93;2.07;;;22.30;87.00;;;;;;5093557;28;20640;-78
2021/05/18 11:20:24;;;;;;;5.63;2.10;;;22.40;86.40;;;;;;5093130;28;20176;-78
2021/05/18 11:25:37;;;;;;;4.60;2.50;;;22.60;88.60;;;;;;5086775;28;20656;-78
2021/05/18 11:28:19;;;;;;;3.70;1.90;;;23.80;85.00;;;;;;5074885;28;20213;-78
2021/05/18 11:30:48;;;;;;;3.93;1.70;;;24.30;81.40;;;;;;5092226;28;20573;-78
2021/05/18 11:33:14;;;;;;;5.70;2.00;;;24.40;81.40;;;;;;5094665;28;20263;-77
2021/05/18 11:35:40;;;;;;;5.17;1.73;;;25.60;76.20;;;;;;5069930;28;20214;-77
2021/05/18 11:38:14;;;;;;;5.03;2.13;;;26.70;76.50;;;;;;5092032;28;20588;-78
2021/05/18 11:40:53;;;;;;;5.37;2.10;;;27.00;72.00;;;;;;5057709;28;20265;-77
2021/05/18 11:43:34;;;;;;;3.40;1.60;;;27.00;75.20;;;;;;5091317;28;20187;-77
2021/05/18 11:46:06;;;;;;;5.33;1.90;;;27.40;75.40;;;;;;5071039;28;20188;-77
2021/05/18 11:48:33;;;;;;;5.13;1.87;;;27.40;70.20;;;;;;5088888;28;20225;-78
2021/05/18 11:51:16;;;;;;;2.58;1.52;;;29.20;71.60;;;;;;5090973;28;20294;-78
2021/05/18 11:53:47;;;;;;;5.70;2.13;;;28.20;65.60;;;;;;5092918;28;20175;-78
2021/05/18 11:56:26;;;;;;;4.82;2.05;;;25.90;69.20;;;;;;5075772;28;20584;-78
2021/05/18 11:59:02;;;;;;;5.07;1.88;;;26.50;70.00;;;;;;5074907;28;20186;-77
2021/05/18 12:01:29;;;;;;;4.13;2.20;;;25.30;71.80;;;;;;5073161;28;20204;-77
2021/05/18 12:04:10;;;;;;;5.30;2.03;;;25.60;71.90;;;;;;5075512;28;20167;-77
2021/05/18 12:06:39;;;;;;;7.13;2.20;;;26.30;75.40;;;;;;5066637;28;20218;-78
2021/05/18 12:09:06;;;;;;;5.73;2.10;;;26.00;72.10;;;;;;5074344;28;20191;-77
2021/05/18 12:11:33;;;;;;;4.17;2.07;;;24.40;73.00;;;;;;5072130;28;20578;-78
2021/05/18 12:13:59;;;;;;;4.67;2.00;;;24.10;76.00;;;;;;5093249;28;20661;-78
2021/05/18 12:16:26;;;;;;;7.80;2.50;;;23.10;79.20;;;;;;5092418;28;20249;-78
2021/05/18 12:18:57;;;;;;;7.77;2.33;;;22.50;83.30;;;;;;5089838;28;20185;-77
2021/05/18 12:21:26;;;;;;;3.70;1.80;;;22.30;84.80;;;;;;5093567;28;20637;-77
2021/05/18 12:24:16;;;;;;;5.20;2.00;;;22.10;82.00;;;;;;5091552;28;20190;-77
2021/05/18 12:26:54;;;;;;;4.63;1.50;;;21.80;79.30;;;;;;5089425;28;20180;-78
2021/05/18 12:29:32;;;;;;;5.57;1.40;;;21.70;79.90;;;;;;5072669;28;20187;-78
2021/05/18 12:32:45;;;;;;;3.67;1.40;;;21.50;79.70;;;;;;5060068;28;20229;-77
2021/05/18 12:35:22;;;;;;;4.50;1.30;;;21.50;81.70;;;;;;5042875;28;20195;-77
2021/05/18 12:37:52;;;;;;;3.43;1.20;;;22.00;83.70;;;;;;5055692;28;20186;-77
2021/05/18 12:40:33;;;;;;;3.27;1.10;;;22.50;86.90;;;;;;5070324;28;20191;-77
2021/05/18 12:43:21;;;;;;;3.37;1.20;;;22.70;80.70;;;;;;5051063;28;20531;-78
2021/05/18 12:46:04;;;;;;;5.50;1.80;;;22.50;82.90;;;;;;5070969;28;20223;-78
2021/05/18 12:48:36;;;;;;;4.27;1.70;;;22.50;81.50;;;;;;5071566;28;21763;-77
2021/05/18 12:51:16;;;;;;;3.93;1.50;;;21.50;82.80;;;;;;5055901;28;20205;-78
2021/05/18 12:53:41;;;;;;;4.40;1.80;;;21.60;85.10;;;;;;5045823;28;20180;-77
2021/05/18 12:56:09;;;;;;;5.77;1.43;;;21.50;87.40;;;;;;5072569;28;20206;-77
2021/05/18 12:58:36;;;;;;;3.80;1.57;;;21.30;82.80;;;;;;5054291;28;20207;-77
2021/05/18 13:01:11;;;;;;;5.47;1.50;;;20.90;82.20;;;;;;5072278;28;20188;-77
2021/05/18 13:03:38;;;;;;;4.00;1.40;;;20.60;84.30;;;;;;5037885;28;20529;-77
2021/05/18 13:06:04;;;;;;;6.10;1.40;;;20.20;87.60;;;;;;5051941;28;20198;-77
2021/05/18 13:08:30;;;;;;;2.60;1.50;;;20.50;90.30;;;;;;5072756;28;20192;-77
2021/05/18 13:13:28;;;;;;;2.07;1.20;;;20.50;84.90;;;;;;5051547;28;20271;-77
2021/05/18 13:16:25;;;;;;;3.03;1.00;;;20.50;83.60;;;;;;5065593;28;20190;-77
2021/05/18 13:19:01;;;;;;;4.47;1.07;;;20.40;86.00;;;;;;5051064;28;20217;-78
2021/05/18 13:21:37;;;;;;;2.93;1.13;;;20.00;84.50;;;;;;5071700;28;20185;-78
2021/05/18 13:26:36;;;;;;;6.83;1.53;;;20.00;86.90;;;;;;5066150;28;20520;-77
2021/05/18 13:29:06;;;;;;;3.23;1.40;;;19.90;86.20;;;;;;5070731;28;20179;-77
2021/05/18 13:31:34;;;;;;;4.10;1.37;;;19.80;86.90;;;;;;5054532;28;20243;-77
2021/05/18 13:34:00;;;;;;;4.27;1.30;;;19.90;87.30;;;;;;5061000;28;20240;-77
2021/05/18 13:36:33;;;;;;;4.33;1.20;;;20.10;85.20;;;;;;5085039;28;20244;-77
2021/05/18 13:39:19;;;;;;;3.00;1.13;;;20.00;87.70;;;;;;5059302;28;20181;-77
2021/05/18 13:41:46;;;;;;;3.30;0.90;;;20.30;85.00;;;;;;5087340;28;20645;-77
2021/05/18 13:44:13;;;;;;;7.27;1.30;;;20.60;88.30;;;;;;5072086;28;20274;-78
2021/05/18 13:46:39;;;;;;;2.30;1.00;;;20.50;88.30;;;;;;5098785;28;20189;-77
2021/05/18 13:49:05;;;;;;;5.50;1.20;;;20.50;87.40;;;;;;5092033;28;20216;-77
2021/05/18 13:51:31;;;;;;;3.80;1.20;;;20.50;88.30;;;;;;5071566;28;20216;-77
2021/05/18 13:53:57;;;;;;;5.37;1.37;;;20.30;86.10;;;;;;5091215;28;20583;-77
2021/05/18 13:56:26;;;;;;;3.50;1.10;;;20.20;88.40;;;;;;5070843;28;20185;-76
2021/05/18 13:58:52;;;;;;;3.43;1.07;;;20.10;89.60;;;;;;5089723;28;20189;-77
2021/05/18 14:01:19;;;;;;;6.40;1.40;;;20.20;89.30;;;;;;5073573;28;20196;-77
2021/05/18 14:03:47;;;;;;;3.17;1.20;;;20.20;87.20;;;;;;5087229;28;20199;-77
2021/05/18 14:06:14;;;;;;;3.60;1.20;;;20.10;88.50;;;;;;5054847;28;20181;-77
2021/05/18 14:08:41;;;;;;;4.30;1.30;;;20.20;87.70;;;;;;5085487;28;20231;-78
2021/05/18 14:11:13;;;;;;;3.87;1.23;;;20.10;86.70;;;;;;5059845;28;20619;-76
2021/05/18 14:13:41;;;;;;;4.27;1.10;;;20.00;89.00;;;;;;5092791;28;20185;-77
2021/05/18 14:16:09;;;;;;;4.80;1.33;;;20.00;86.20;;;;;;5084941;28;20207;-77
2021/05/18 14:18:35;;;;;;;5.93;1.30;;;20.00;90.70;;;;;;5094589;28;20190;-76
2021/05/18 14:21:02;;;;;;;6.70;1.40;;;20.00;88.50;;;;;;5092341;28;20192;-77
2021/05/18 14:23:37;;;;;;;2.83;1.10;;;20.10;84.80;;;;;;5091403;28;20186;-77
2021/05/18 14:26:03;;;;;;;2.80;1.10;;;20.10;86.50;;;;;;5074582;28;20187;-77
2021/05/18 14:28:28;;;;;;;3.60;1.10;;;19.80;86.00;;;;;;5067646;28;20175;-77
2021/05/18 14:30:54;;;;;;;3.27;1.10;;;19.60;85.70;;;;;;5092555;28;20232;-77
2021/05/18 14:33:20;;;;;;;5.70;1.27;;;19.60;85.80;;;;;;5091554;28;20551;-77
2021/05/18 14:35:46;;;;;;;3.60;1.17;;;19.70;89.90;;;;;;5093039;28;20220;-78
2021/05/18 14:38:18;;;;;;;2.63;0.80;;;19.70;88.90;;;;;;5089914;28;20523;-78
2021/05/18 14:45:47;;;;;;;2.90;1.00;;;19.80;84.50;;;;;;5093861;28;20560;-77
2021/05/18 14:54:05;;;;;;;4.60;1.20;;;20.00;86.10;;;;;;5090913;28;20700;-78
2021/05/18 14:56:31;;;;;;;3.40;0.80;;;19.90;85.80;;;;;;5075282;28;20223;-78
2021/05/18 14:58:57;;;;;;;2.67;1.00;;;20.30;89.40;;;;;;5091766;28;20208;-78
2021/05/18 15:01:22;;;;;;;4.27;1.00;;;20.50;83.80;;;;;;5072461;28;20273;-78
2021/05/18 15:03:48;;;;;;;3.17;1.00;;;20.50;84.30;;;;;;5092779;28;20712;-78
2021/05/18 15:06:13;;;;;;;3.00;1.10;;;20.30;87.30;;;;;;5088951;28;20616;-78
2021/05/18 15:08:39;;;;;;;5.73;1.27;;;20.40;84.00;;;;;;5091908;28;20180;-78
2021/05/18 15:11:05;;;;;;;2.77;1.10;;;20.10;80.80;;;;;;5095041;28;20200;-78
2021/05/18 15:13:33;;;;;;;3.67;1.10;;;19.90;85.10;;;;;;5089419;28;20636;-78
2021/05/18 15:15:58;;;;;;;4.67;1.17;;;19.80;85.40;;;;;;5091812;28;20228;-78
2021/05/18 15:18:25;;;;;;;8.30;1.20;;;19.80;89.00;;;;;;5087246;28;20212;-78
2021/05/18 15:20:50;;;;;;;5.10;1.40;;;20.30;86.00;;;;;;5092070;28;20550;-77
2021/05/18 15:23:17;;;;;;;3.97;1.10;;;20.30;84.30;;;;;;5092916;28;20179;-79
2021/05/18 15:25:43;;;;;;;6.17;1.43;;;20.60;86.70;;;;;;5073456;28;20243;-79
2021/05/18 15:28:08;;;;;;;3.27;1.20;;;20.70;86.90;;;;;;5095453;28;20182;-78
2021/05/18 15:30:34;;;;;;;2.90;1.10;;;20.90;82.60;;;;;;5089104;28;20270;-79
2021/05/18 15:33:00;;;;;;;2.33;1.10;;;20.50;83.70;;;;;;5073137;28;20610;-78
2021/05/18 15:35:25;;;;;;;3.83;1.23;;;20.20;84.60;;;;;;5070063;28;20293;-78
2021/05/18 15:37:51;;;;;;;2.97;1.10;;;20.10;85.80;;;;;;5086469;28;20189;-78
2021/05/18 15:40:17;;;;;;;3.27;1.23;;;19.90;84.20;;;;;;5074117;28;20236;-78
2021/05/18 15:42:43;;;;;;;3.20;1.03;;;20.00;86.10;;;;;;5080386;28;20210;-78
2021/05/18 15:45:09;;;;;;;5.23;1.37;;;20.00;83.50;;;;;;5076742;28;20593;-78
2021/05/18 15:47:36;;;;;;;3.00;1.17;;;19.80;85.40;;;;;;5094779;28;20647;-78
2021/05/18 15:50:04;;;;;;;4.23;1.30;;;19.90;84.90;;;;;;5091012;28;20234;-78
2021/05/18 15:52:31;;;;;;;4.60;1.00;;;20.00;87.40;;;;;;5093466;28;20301;-77
2021/05/18 15:54:56;;;;;;;4.40;1.10;;;20.00;83.70;;;;;;5070630;28;20523;-78
2021/05/18 15:57:22;;;;;;;3.93;1.27;;;19.70;84.10;;;;;;5094379;28;20195;-78
2021/05/18 15:59:49;;;;;;;2.43;1.23;;;19.70;86.10;;;;;;5065931;28;20181;-78
2021/05/18 16:02:15;;;;;;;2.30;0.83;;;19.90;86.60;;;;;;5077297;28;20184;-78
2021/05/18 16:04:41;;;;;;;3.83;1.20;;;20.00;85.80;;;;;;5092590;28;20190;-78
2021/05/18 16:07:08;;;;;;;7.47;1.30;;;20.20;86.70;;;;;;5089563;28;20243;-78
2021/05/18 16:09:34;;;;;;;4.10;1.43;;;20.30;86.40;;;;;;5094008;28;20188;-78
2021/05/18 16:11:59;;;;;;;1.93;1.20;;;20.30;84.40;;;;;;5093875;28;20201;-78
2021/05/18 16:14:25;;;;;;;6.23;1.17;;;20.30;85.20;;;;;;5093289;28;20781;-78
2021/05/18 16:16:51;;;;;;;2.70;1.07;;;19.60;84.40;;;;;;5089585;28;20212;-78
2021/05/18 16:19:17;;;;;;;4.47;1.17;;;19.30;85.90;;;;;;5085441;28;20265;-78
2021/05/18 16:21:43;;;;;;;4.60;1.50;;;19.40;90.00;;;;;;5076356;28;20613;-79
2021/05/18 16:24:09;;;;;;;4.33;2.20;;;19.50;86.90;;;;;;5088000;28;20177;-80
2021/05/18 16:26:34;;;;;;;3.20;1.00;;;19.80;87.90;;;;;;5075631;28;20185;-79
2021/05/18 16:29:01;;;;;;;5.03;1.10;;;20.10;87.30;;;;;;5088373;28;20210;-78
2021/05/18 16:31:28;;;;;;;2.40;0.90;;;20.10;86.10;;;;;;5087388;28;20305;-78
2021/05/18 16:33:55;;;;;;;3.73;1.30;;;20.20;83.40;;;;;;5092408;28;20689;-79
2021/05/18 16:36:21;;;;;;;3.13;1.03;;;20.10;87.20;;;;;;5066273;28;20225;-78
2021/05/18 16:38:47;;;;;;;2.70;1.00;;;20.20;85.50;;;;;;5093242;28;20598;-78
2021/05/18 16:41:13;;;;;;;4.53;0.97;;;20.20;87.80;;;;;;5091129;28;20269;-78
2021/05/18 16:43:39;;;;;;;3.53;0.93;;;20.30;86.30;;;;;;5074301;28;21000;-78
2021/05/18 16:46:07;;;;;;;3.37;0.93;;;20.20;86.70;;;;;;5075319;28;20180;-79
2021/05/18 16:48:33;;;;;;;4.03;1.10;;;20.00;85.30;;;;;;5092391;28;20191;-79
2021/05/18 16:51:01;;;;;;;3.67;1.10;;;19.80;88.20;;;;;;5090234;28;20300;-78
2021/05/18 16:53:27;;;;;;;4.20;1.10;;;19.80;86.20;;;;;;5066860;28;20174;-78
2021/05/18 16:55:54;;;;;;;2.67;1.00;;;19.70;85.00;;;;;;5071697;28;20519;-79
2021/05/18 16:58:20;;;;;;;4.77;1.00;;;19.20;83.70;;;;;;5092565;28;20183;-78
2021/05/18 17:00:46;;;;;;;5.50;1.40;;;18.90;87.60;;;;;;5091225;28;20602;-79
2021/05/18 17:03:13;;;;;;;4.40;1.50;;;19.10;89.30;;;;;;5090393;28;20374;-78
2021/05/18 17:05:39;;;;;;;5.23;1.30;;;19.30;90.30;;;;;;5085724;28;20578;-78
2021/05/18 17:08:05;;;;;;;3.20;0.93;;;19.30;88.80;;;;;;5067127;28;20189;-78
2021/05/18 17:10:34;;;;;;;4.10;1.27;;;19.40;86.90;;;;;;5053516;28;20655;-78
2021/05/18 17:13:01;;;;;;;2.90;1.17;;;19.40;89.20;;;;;;5087972;28;20183;-79
2021/05/18 17:15:28;;;;;;;2.20;1.20;;;19.50;89.20;;;;;;5087248;28;20179;-79
2021/05/18 17:17:55;;;;;;;2.80;0.87;;;19.20;87.20;;;;;;5089626;28;20329;-77
2021/05/18 17:20:22;;;;;;;2.90;1.23;;;19.30;88.60;;;;;;5087671;28;20217;-77
2021/05/18 17:22:48;;;;;;;5.23;1.40;;;19.50;88.20;;;;;;5087734;28;20181;-77
2021/05/18 17:25:14;;;;;;;5.90;1.90;;;19.50;84.80;;;;;;5089718;28;20194;-77
2021/05/18 17:27:40;;;;;;;6.13;2.43;;;19.70;90.70;;;;;;5090063;28;20184;-78
2021/05/18 17:30:10;;;;;;;6.63;2.73;;;19.70;93.30;;;;;;5086270;28;20178;-77
2021/05/18 17:32:36;;;;;;;7.53;2.90;;;19.50;94.80;;;;;;5052560;28;20204;-78
2021/05/18 17:35:03;;;;;;;7.43;2.60;;;19.30;95.80;;;;;;5067480;28;20181;-78
2021/05/18 17:37:28;;;;;;;6.83;2.70;;;19.20;97.40;;;;;;5088801;28;20656;-78
2021/05/18 17:39:54;;;;;;;6.03;2.90;;;18.90;98.50;;;;;;5073213;28;20177;-77
2021/05/18 17:42:19;;;;;;;5.73;2.70;;;18.70;99.30;;;;;;5088117;28;20200;-78
2021/05/18 17:44:46;;;;;;;7.53;3.00;;;18.40;99.90;;;;;;5096010;28;20605;-78
2021/05/18 17:47:13;;;;;;;9.90;3.93;;;18.40;99.90;;;;;;5093803;28;20181;-77
2021/05/18 17:49:39;;;;;;;9.97;4.03;;;18.20;99.90;;;;;;5095082;28;20791;-77
2021/05/18 17:52:08;;;;;;;11.43;5.10;;;17.80;99.90;;;;;;5094330;28;20209;-78
2021/05/18 17:54:36;;;;;;;10.50;5.03;;;17.70;99.90;;;;;;5090202;28;20195;-78
2021/05/18 17:57:02;;;;;;;10.37;4.63;;;17.50;99.90;;;;;;5063216;28;20241;-78
2021/05/18 17:59:28;;;;;;;10.67;5.10;;;17.40;99.90;;;;;;5093272;28;20228;-78
2021/05/18 18:01:54;;;;;;;10.23;5.13;;;17.20;99.90;;;;;;5097381;28;20649;-77